Time;durP1;ratioP1;P1;durP2;ratioP2;P2;SDS_P1;SDS_P2;PMS_P1;PMS_P2;Temp;Humidity;BMP_temperature;BMP_pressure;BME280_temperature;BME280_humidity;BME280_pressure;Samples;Min_cycle;Max_cycle;Signal;HPM_P1;HPM_P2
2021/08/06 04:37:06;;;;;;;3.55;2.15;;;16.80;99.90;;;17.99;93.46;99221.38;6229546;22;20021;-90
2021/08/06 04:39:32;;;;;;;3.47;2.50;;;16.80;99.90;;;17.98;93.94;99230.28;6234498;23;20348;-91
2021/08/06 04:41:58;;;;;;;6.43;2.30;;;16.80;99.90;;;18.04;93.42;99225.69;6221949;23;20001;-89
2021/08/06 04:44:24;;;;;;;3.85;2.50;;;16.90;99.90;;;18.06;93.83;99228.88;6222347;23;20123;-90
2021/08/06 04:46:50;;;;;;;2.70;2.15;;;16.90;99.90;;;18.01;94.99;99238.69;6226212;23;20415;-89
2021/08/06 04:49:20;;;;;;;3.08;2.40;;;16.90;99.90;;;18.00;95.10;99234.25;6223421;23;20008;-93
2021/08/06 04:51:46;;;;;;;3.53;2.30;;;16.90;99.90;;;17.96;95.81;99239.19;6224915;23;20008;-90
2021/08/06 04:54:12;;;;;;;3.78;2.30;;;16.90;99.90;;;18.01;96.17;99235.88;6225337;23;20008;-90
2021/08/06 04:56:40;;;;;;;5.60;2.47;;;16.90;99.90;;;17.92;97.63;99232.84;6231972;23;20012;-91
2021/08/06 04:59:06;;;;;;;7.43;2.90;;;16.80;99.90;;;17.84;99.61;99231.44;6226355;23;20015;-89
2021/08/06 05:01:32;;;;;;;3.97;2.90;;;16.80;99.90;;;17.73;100.00;99230.91;6223676;23;20020;-90
2021/08/06 05:04:00;;;;;;;2.72;2.25;;;16.70;99.90;;;17.76;100.00;99232.84;6222932;23;20004;-88
2021/08/06 05:06:26;;;;;;;5.13;3.00;;;16.60;99.90;;;17.60;100.00;99224.34;6220374;23;20015;-89
2021/08/06 05:08:52;;;;;;;3.78;2.50;;;16.60;99.90;;;17.52;100.00;99225.75;6219793;23;20489;-90
2021/08/06 05:11:19;;;;;;;6.20;3.20;;;16.50;99.90;;;17.53;100.00;99219.63;6220803;23;20012;-87
2021/08/06 05:13:45;;;;;;;5.93;2.40;;;16.50;99.90;;;17.55;100.00;99227.69;6221233;23;20016;-91
2021/08/06 05:16:12;;;;;;;3.90;2.50;;;16.40;99.90;;;17.46;100.00;99225.47;6220222;23;20035;-91
2021/08/06 05:18:38;;;;;;;3.28;2.60;;;16.40;99.90;;;17.49;100.00;99218.16;6219027;23;20009;-87
2021/08/06 05:21:05;;;;;;;4.35;2.15;;;16.40;99.90;;;17.55;100.00;99227.69;6220556;23;20016;-90
2021/08/06 05:23:32;;;;;;;2.83;2.45;;;16.40;99.90;;;17.61;100.00;99218.28;6216945;23;20312;-90
2021/08/06 05:25:58;;;;;;;3.90;2.70;;;16.40;99.90;;;17.58;100.00;99219.16;6225387;22;20012;-88
2021/08/06 05:28:25;;;;;;;4.00;2.75;;;16.40;99.90;;;17.62;100.00;99219.09;6280584;22;20400;-88
2021/08/06 05:30:52;;;;;;;4.13;2.65;;;16.40;99.90;;;17.61;100.00;99212.63;6307122;22;20093;-84
2021/08/06 05:33:18;;;;;;;5.63;2.80;;;16.40;99.90;;;17.58;100.00;99215.53;6282148;22;20423;-86
2021/08/06 05:35:47;;;;;;;4.15;2.95;;;16.40;99.90;;;17.65;100.00;99207.72;6282340;22;20042;-85
2021/08/06 05:38:13;;;;;;;3.17;2.50;;;16.40;99.90;;;17.69;100.00;99211.22;6281776;22;20011;-89
2021/08/06 05:40:42;;;;;;;3.95;2.92;;;16.40;99.90;;;17.77;100.00;99215.47;6282105;22;19999;-88
2021/08/06 05:43:08;;;;;;;5.63;2.70;;;16.50;99.90;;;17.81;100.00;99209.72;6282795;22;20025;-86
2021/08/06 05:45:34;;;;;;;4.03;2.72;;;16.50;99.90;;;17.83;100.00;99213.69;6283183;22;20026;-87
2021/08/06 05:48:02;;;;;;;4.63;2.53;;;16.50;99.90;;;17.83;100.00;99216.53;6282408;22;20014;-87
2021/08/06 05:50:41;;;;;;;8.10;2.60;;;16.50;99.90;;;17.95;100.00;99208.59;6281467;22;20008;-89
2021/08/06 05:53:08;;;;;;;3.95;2.70;;;16.60;99.90;;;18.06;100.00;99214.75;6281759;22;20011;-87
2021/08/06 05:55:36;;;;;;;3.75;2.60;;;16.70;99.90;;;18.05;100.00;99215.97;6283184;22;20004;-87
2021/08/06 05:58:03;;;;;;;3.78;2.60;;;16.70;99.90;;;18.17;100.00;99210.38;6281133;22;20018;-88
2021/08/06 06:00:29;;;;;;;3.88;2.95;;;16.80;99.90;;;18.24;100.00;99221.50;6280594;22;20054;-88
2021/08/06 06:02:55;;;;;;;3.78;2.30;;;16.80;99.90;;;18.23;100.00;99221.97;6281335;22;20011;-87
2021/08/06 06:05:21;;;;;;;3.75;2.47;;;16.80;99.90;;;18.28;100.00;99222.22;6281190;22;20014;-87
2021/08/06 06:07:49;;;;;;;6.35;2.75;;;16.90;99.90;;;18.31;100.00;99212.84;6283367;22;20321;-85
2021/08/06 06:10:22;;;;;;;3.13;2.80;;;16.90;99.90;;;18.24;100.00;99226.34;6282163;22;20012;-86
2021/08/06 06:12:50;;;;;;;4.60;2.70;;;16.90;99.90;;;18.31;100.00;99218.50;6281875;22;20330;-86
2021/08/06 06:15:18;;;;;;;4.28;2.63;;;16.90;99.90;;;18.39;100.00;99231.22;6281703;22;20011;-86
2021/08/06 06:17:45;;;;;;;4.85;2.85;;;17.00;99.90;;;18.53;100.00;99229.25;6280445;22;20042;-87
2021/08/06 06:20:13;;;;;;;3.95;2.70;;;17.20;99.90;;;18.53;100.00;99218.72;6281468;22;20015;-88
2021/08/06 06:22:39;;;;;;;3.20;2.50;;;17.20;99.90;;;18.59;100.00;99230.31;6281148;22;20004;-87
2021/08/06 06:25:07;;;;;;;3.70;2.50;;;17.30;99.90;;;18.61;100.00;99225.78;6281524;22;20004;-88
2021/08/06 06:27:55;;;;;;;4.20;2.42;;;17.30;99.90;;;18.74;100.00;99229.47;6282908;22;20098;-91
2021/08/06 06:30:26;;;;;;;3.15;2.40;;;17.50;99.90;;;18.74;100.00;99237.94;6308508;22;20402;-88
2021/08/06 06:32:55;;;;;;;4.50;2.38;;;17.50;99.90;;;18.75;100.00;99233.84;6284336;22;20479;-87
2021/08/06 06:35:22;;;;;;;4.18;2.40;;;17.60;99.90;;;18.83;100.00;99231.63;6283858;22;20011;-88
2021/08/06 06:37:51;;;;;;;3.58;2.20;;;17.50;99.90;;;18.88;100.00;99233.88;6285685;22;20015;-90
2021/08/06 06:40:21;;;;;;;3.92;1.98;;;17.60;99.90;;;18.69;100.00;99229.19;6288484;22;20000;-90
2021/08/06 06:42:50;;;;;;;3.28;2.35;;;17.50;99.90;;;18.57;100.00;99239.22;6284640;22;20011;-90
2021/08/06 06:45:18;;;;;;;7.13;2.05;;;17.50;99.90;;;18.62;100.00;99235.84;6282334;22;20027;-88
2021/08/06 06:47:49;;;;;;;3.25;1.90;;;17.50;99.90;;;18.50;100.00;99242.25;6282649;22;20019;-86
2021/08/06 06:50:23;;;;;;;3.70;2.13;;;17.30;99.90;;;18.38;100.00;99248.59;6282744;22;20068;-87
2021/08/06 06:52:50;;;;;;;3.65;2.38;;;17.30;99.90;;;18.27;100.00;99243.22;6281830;22;20007;-88
2021/08/06 06:55:18;;;;;;;2.42;2.00;;;17.20;99.90;;;18.24;100.00;99244.13;6284589;22;20043;-88
2021/08/06 06:57:58;;;;;;;3.17;2.30;;;17.20;99.90;;;18.14;100.00;99247.25;6286234;22;20126;-88
2021/08/06 07:00:31;;;;;;;2.42;1.77;;;17.10;99.90;;;18.15;100.00;99248.81;6287505;22;20452;-85
2021/08/06 07:02:59;;;;;;;2.58;2.20;;;17.10;99.90;;;18.21;100.00;99249.84;6289127;22;20003;-87
2021/08/06 07:05:25;;;;;;;4.68;2.05;;;17.10;99.90;;;18.21;100.00;99253.47;6300172;22;20434;-88
2021/08/06 07:07:52;;;;;;;2.80;1.48;;;17.00;99.90;;;18.19;100.00;99253.13;6290697;22;20414;-85
2021/08/06 07:10:21;;;;;;;2.25;1.45;;;17.00;99.90;;;18.17;100.00;99252.78;6281175;22;20004;-86
2021/08/06 07:12:50;;;;;;;2.08;1.40;;;17.00;99.90;;;18.14;100.00;99252.88;6280406;22;20007;-86
2021/08/06 07:15:17;;;;;;;2.42;1.77;;;17.00;99.90;;;18.22;100.00;99255.06;6281979;22;20334;-86
2021/08/06 07:17:45;;;;;;;2.83;1.40;;;17.00;99.90;;;18.23;100.00;99250.22;6281760;22;20024;-87
2021/08/06 07:20:16;;;;;;;3.95;1.40;;;17.10;99.90;;;18.34;100.00;99257.16;6281594;22;20037;-86
2021/08/06 07:22:43;;;;;;;2.58;1.83;;;17.10;99.90;;;18.47;100.00;99257.22;6280849;22;20306;-87
2021/08/06 07:25:13;;;;;;;5.47;1.80;;;17.20;99.90;;;18.60;100.00;99251.66;6281629;22;20368;-85
2021/08/06 07:27:41;;;;;;;5.63;1.58;;;17.40;99.90;;;18.79;100.00;99259.22;6281630;22;20012;-87
2021/08/06 07:30:09;;;;;;;2.80;1.60;;;17.50;99.90;;;18.94;100.00;99255.53;6280899;22;20003;-88
2021/08/06 07:32:37;;;;;;;4.90;1.60;;;17.60;99.90;;;19.02;100.00;99253.28;6280296;22;20014;-89
2021/08/06 07:35:08;;;;;;;1.60;1.40;;;17.70;99.90;;;19.02;100.00;99255.31;6280949;22;20015;-87
2021/08/06 07:37:35;;;;;;;3.67;1.52;;;17.80;99.90;;;19.10;100.00;99254.69;6281660;22;20000;-89
2021/08/06 07:40:01;;;;;;;2.38;1.35;;;17.90;99.90;;;19.12;100.00;99262.72;6283324;22;20182;-88
2021/08/06 07:42:27;;;;;;;3.75;1.65;;;17.90;99.90;;;19.16;100.00;99266.22;6281845;22;20008;-88
2021/08/06 07:44:54;;;;;;;4.18;1.52;;;18.00;99.90;;;19.21;99.85;99266.47;6281794;22;20011;-89
2021/08/06 07:47:20;;;;;;;2.28;1.50;;;18.00;99.90;;;19.37;99.60;99271.25;6283369;22;20031;-86
2021/08/06 07:49:46;;;;;;;4.35;1.50;;;18.10;99.90;;;19.39;99.66;99272.38;6282452;22;20433;-89
2021/08/06 07:52:14;;;;;;;2.20;1.38;;;18.20;99.90;;;19.36;99.01;99264.00;6283225;22;20344;-89
2021/08/06 07:54:42;;;;;;;2.38;1.38;;;18.20;99.90;;;19.46;98.78;99272.19;6284483;22;20011;-87
2021/08/06 07:57:12;;;;;;;2.60;1.30;;;18.30;99.90;;;19.57;99.30;99271.06;6283228;22;20000;-89
2021/08/06 07:59:38;;;;;;;5.35;2.05;;;18.40;99.90;;;19.52;97.82;99274.47;6283137;22;20084;-87
2021/08/06 08:02:06;;;;;;;2.95;1.40;;;18.40;99.90;;;19.51;98.20;99267.22;6282713;22;20101;-87
2021/08/06 08:04:32;;;;;;;1.55;1.40;;;18.40;99.90;;;19.61;97.43;99271.75;6283317;22;20058;-88
2021/08/06 08:06:58;;;;;;;2.08;1.50;;;18.40;99.90;;;19.57;98.18;99274.69;6282607;22;20008;-89
2021/08/06 08:09:25;;;;;;;4.75;1.50;;;18.40;99.90;;;19.53;97.46;99276.03;6308832;22;20056;-88
2021/08/06 08:11:51;;;;;;;3.20;1.73;;;18.40;99.90;;;19.57;97.77;99268.25;6282790;22;20024;-88
2021/08/06 08:14:17;;;;;;;2.50;1.45;;;18.30;99.90;;;19.59;98.31;99279.91;6282747;22;20008;-89
2021/08/06 08:16:44;;;;;;;3.17;1.77;;;18.40;99.90;;;19.53;99.32;99284.53;6282955;22;20459;-88
2021/08/06 08:19:11;;;;;;;1.73;1.55;;;18.40;99.90;;;19.78;98.52;99276.84;6283939;22;20012;-89
2021/08/06 08:21:37;;;;;;;3.38;2.10;;;18.50;99.90;;;20.06;96.20;99280.03;6283126;22;20023;-89
2021/08/06 08:24:04;;;;;;;3.50;1.90;;;18.70;99.90;;;20.22;95.92;99271.38;6283270;22;20020;-88
2021/08/06 08:26:30;;;;;;;2.50;1.58;;;18.80;99.90;;;20.38;95.19;99279.75;6282793;22;20023;-91
2021/08/06 08:28:56;;;;;;;3.88;1.55;;;18.90;99.90;;;20.49;93.70;99278.13;6284090;22;20011;-88
2021/08/06 08:31:22;;;;;;;3.33;1.58;;;19.00;99.90;;;19.95;95.30;99286.03;6327181;22;20324;-89
2021/08/06 08:33:49;;;;;;;2.08;1.60;;;19.00;99.90;;;20.01;95.17;99284.19;6303208;22;20004;-88
2021/08/06 08:36:14;;;;;;;3.40;1.90;;;19.00;99.90;;;20.35;94.48;99287.16;6303219;22;20026;-88
2021/08/06 08:38:40;;;;;;;2.33;1.90;;;19.00;99.90;;;20.66;94.75;99284.44;6303084;22;20003;-88
2021/08/06 08:41:06;;;;;;;2.10;1.90;;;19.30;99.90;;;20.81;93.55;99279.03;6314356;22;20020;-90
2021/08/06 08:43:33;;;;;;;3.15;1.65;;;19.50;99.90;;;20.51;92.13;99280.53;6281164;22;20190;-87
2021/08/06 08:46:02;;;;;;;1.52;1.40;;;19.50;99.90;;;20.44;91.45;99281.56;6307157;22;20317;-89
2021/08/06 08:48:29;;;;;;;3.30;1.73;;;19.40;99.90;;;20.29;92.20;99279.69;6282369;22;20434;-91
2021/08/06 08:50:58;;;;;;;1.70;1.50;;;19.30;99.90;;;20.62;92.02;99268.78;6281593;22;20018;-89
2021/08/06 08:53:24;;;;;;;2.72;1.83;;;19.30;99.90;;;20.54;90.28;99278.81;6281893;22;20011;-87
2021/08/06 08:55:50;;;;;;;2.63;1.80;;;19.30;99.90;;;20.45;91.34;99271.00;6284046;22;20011;-87
2021/08/06 08:58:16;;;;;;;1.70;1.40;;;19.30;99.90;;;20.84;91.46;99280.94;6283875;22;20007;-87
2021/08/06 09:00:43;;;;;;;3.03;1.83;;;19.60;99.90;;;21.61;88.15;99276.47;6283012;22;20010;-87
2021/08/06 09:03:48;;;;;;;3.97;1.67;;;20.20;99.90;;;21.78;84.84;99274.94;6283712;22;20082;-87
2021/08/06 09:06:17;;;;;;;1.73;1.40;;;20.50;99.90;;;22.25;84.68;99266.91;6281893;22;20027;-89
2021/08/06 09:08:44;;;;;;;2.83;1.60;;;20.80;99.90;;;22.46;80.94;99268.84;6282045;22;20011;-90
2021/08/06 09:11:34;;;;;;;1.90;1.40;;;21.10;99.90;;;22.64;79.73;99270.91;6281815;22;20094;-88
2021/08/06 09:14:27;;;;;;;2.78;1.58;;;21.40;99.90;;;22.57;79.46;99277.69;6282339;22;20318;-87
2021/08/06 09:17:14;;;;;;;3.03;1.50;;;21.30;99.90;;;22.34;79.19;99261.25;6282448;22;20436;-90
2021/08/06 09:19:55;;;;;;;2.80;1.60;;;21.00;99.90;;;21.87;78.79;99255.06;6297521;22;20003;-87
2021/08/06 09:22:27;;;;;;;3.47;1.65;;;20.80;99.90;;;21.68;81.28;99259.09;6300656;22;20016;-87
2021/08/06 09:25:16;;;;;;;4.47;1.75;;;20.50;99.90;;;21.44;82.91;99259.66;6281448;22;20015;-89
2021/08/06 09:28:03;;;;;;;4.70;1.88;;;20.40;99.90;;;21.69;81.58;99263.53;6280004;22;20011;-88
2021/08/06 09:30:38;;;;;;;3.67;1.77;;;20.50;99.90;;;21.42;80.75;99259.31;6282742;22;20008;-88
2021/08/06 09:33:10;;;;;;;2.58;1.80;;;20.40;99.90;;;21.31;82.59;99266.66;6281911;22;20304;-89
2021/08/06 09:35:37;;;;;;;4.13;1.90;;;20.30;99.90;;;21.21;83.47;99274.31;6279067;22;20263;-89
2021/08/06 09:38:16;;;;;;;4.68;1.73;;;20.20;99.90;;;21.17;84.86;99285.03;6279745;22;20057;-90
2021/08/06 09:40:42;;;;;;;4.03;1.50;;;20.10;99.90;;;21.19;83.37;99271.16;6280231;22;20007;-90
2021/08/06 09:43:16;;;;;;;2.05;1.60;;;20.00;99.90;;;20.81;82.90;99285.50;6280440;22;20003;-87
2021/08/06 09:45:43;;;;;;;4.00;1.63;;;19.80;99.90;;;20.48;82.99;99296.38;6305065;22;20012;-86
2021/08/06 09:48:10;;;;;;;3.65;1.30;;;19.60;99.90;;;20.43;82.03;99296.19;6279959;22;20027;-90
2021/08/06 09:50:46;;;;;;;2.70;1.17;;;19.50;99.90;;;20.64;82.10;99308.84;6279569;22;20345;-88
2021/08/06 09:53:14;;;;;;;2.45;1.20;;;19.50;99.90;;;20.57;84.84;99318.41;6305457;22;20385;-89
2021/08/06 09:55:46;;;;;;;1.50;1.38;;;19.40;99.90;;;20.21;86.90;99315.94;6280763;22;20004;-89
2021/08/06 09:58:20;;;;;;;3.90;1.33;;;19.20;99.90;;;19.88;89.72;99318.22;6278999;22;20090;-88
2021/08/06 10:00:53;;;;;;;1.90;1.25;;;18.90;99.90;;;19.64;91.46;99313.34;6278693;22;20149;-89
2021/08/06 10:03:33;;;;;;;2.65;1.58;;;18.70;99.90;;;19.62;93.01;99305.28;6280038;22;20000;-88
2021/08/06 10:06:19;;;;;;;2.70;1.27;;;18.60;99.90;;;19.75;91.90;99308.13;6281872;22;20014;-88
2021/08/06 10:08:46;;;;;;;1.83;1.10;;;18.50;99.90;;;19.91;91.85;99299.50;6280964;22;20030;-89
2021/08/06 10:11:14;;;;;;;1.77;1.23;;;18.60;99.90;;;19.84;93.06;99299.75;6280731;22;20012;-90
2021/08/06 10:13:42;;;;;;;3.00;1.27;;;18.70;99.90;;;20.18;93.35;99304.72;6281676;22;20011;-88
2021/08/06 10:16:08;;;;;;;3.28;1.25;;;18.80;99.90;;;20.55;90.81;99303.84;6278603;22;20143;-88
2021/08/06 10:18:35;;;;;;;2.75;1.45;;;19.10;99.90;;;21.34;88.69;99300.59;6281700;22;20000;-88
2021/08/06 10:21:01;;;;;;;3.83;1.30;;;19.60;99.90;;;21.40;85.13;99297.94;6280142;22;20053;-89
2021/08/06 10:23:27;;;;;;;5.32;2.30;;;19.80;99.90;;;21.46;86.30;99298.94;6281067;22;20010;-89
2021/08/06 10:25:55;;;;;;;3.50;1.48;;;20.00;99.90;;;21.69;84.09;99301.28;6281041;22;20008;-88
2021/08/06 10:28:21;;;;;;;2.90;1.38;;;20.20;99.90;;;21.97;81.26;99302.19;6282584;22;20004;-88
2021/08/06 10:30:47;;;;;;;4.50;1.27;;;20.40;99.90;;;21.79;81.20;99302.09;6307953;22;20090;-88
2021/08/06 10:33:28;;;;;;;1.95;1.33;;;20.50;99.90;;;21.50;83.97;99300.38;6256138;22;20031;-87
2021/08/06 10:36:05;;;;;;;1.75;1.55;;;20.30;99.90;;;21.59;81.87;99305.31;6281405;22;20007;-88
2021/08/06 10:38:45;;;;;;;3.28;1.42;;;20.40;99.90;;;22.58;78.58;99309.78;6307382;22;20063;-88
2021/08/06 10:41:23;;;;;;;5.03;1.42;;;21.00;99.90;;;23.15;79.18;99310.19;6279264;22;20011;-87
2021/08/06 10:44:01;;;;;;;3.53;1.70;;;21.40;99.90;;;22.99;77.99;99314.91;6280353;22;20004;-88
2021/08/06 10:47:02;;;;;;;4.18;1.25;;;21.70;99.90;;;23.15;72.43;99315.88;6281264;22;20426;-87
2021/08/06 10:49:31;;;;;;;4.18;1.35;;;21.90;99.90;;;23.40;73.70;99309.84;6280508;22;20035;-89
2021/08/06 10:52:18;;;;;;;3.15;1.40;;;22.10;99.90;;;24.21;69.87;99317.34;6281537;22;20004;-89
2021/08/06 10:54:48;;;;;;;1.77;1.27;;;22.60;99.90;;;24.60;68.66;99313.31;6280839;22;20027;-89
2021/08/06 10:57:22;;;;;;;2.90;1.48;;;23.10;99.90;;;24.94;67.89;99317.72;6280985;22;20011;-87
2021/08/06 10:59:50;;;;;;;3.83;1.40;;;23.40;99.90;;;24.38;65.24;99320.59;6282163;22;20004;-88
2021/08/06 11:02:36;;;;;;;1.90;1.40;;;23.20;99.90;;;24.31;67.04;99312.38;6282711;22;20026;-86
2021/08/06 11:05:33;;;;;;;5.28;1.52;;;22.90;99.90;;;24.15;68.07;99313.59;6283155;22;20065;-88
2021/08/06 11:08:03;;;;;;;2.90;1.30;;;22.50;99.90;;;23.74;71.08;99312.28;6284105;22;20015;-87
2021/08/06 11:10:52;;;;;;;2.28;1.35;;;22.30;99.90;;;23.59;69.20;99317.09;6283897;22;20035;-88
2021/08/06 11:13:36;;;;;;;2.00;1.40;;;22.10;99.90;;;23.67;70.05;99311.84;6283187;22;20008;-88
2021/08/06 11:16:10;;;;;;;5.32;1.88;;;22.00;99.90;;;23.72;69.14;99316.91;6285079;22;20000;-89
2021/08/06 11:18:45;;;;;;;3.22;1.38;;;22.10;99.90;;;23.45;67.89;99324.25;6285008;22;20031;-87
2021/08/06 11:21:13;;;;;;;2.45;1.33;;;22.10;99.90;;;23.90;68.36;99322.53;6288229;22;20042;-87
2021/08/06 11:23:39;;;;;;;3.88;1.30;;;22.30;99.90;;;24.29;65.82;99329.22;6287867;22;20004;-88
2021/08/06 11:26:11;;;;;;;2.65;1.55;;;22.50;99.90;;;24.52;65.99;99328.44;6313079;22;20061;-87
2021/08/06 11:28:39;;;;;;;2.75;1.77;;;22.70;99.90;;;25.03;64.41;99319.69;6257611;22;20020;-89
2021/08/06 11:31:24;;;;;;;2.60;1.42;;;23.00;99.90;;;25.31;62.79;99318.16;6276714;22;20008;-88
2021/08/06 11:34:05;;;;;;;3.53;1.38;;;23.40;99.90;;;25.57;62.51;99322.06;6252755;23;20020;-87
2021/08/06 11:36:34;;;;;;;2.47;1.17;;;23.50;99.90;;;25.09;61.22;99314.88;6253720;23;20351;-86
2021/08/06 11:39:16;;;;;;;2.38;1.58;;;23.30;99.90;;;24.54;63.79;99320.97;6280804;22;20373;-87
2021/08/06 11:41:55;;;;;;;3.13;1.30;;;23.00;99.90;;;24.20;63.85;99312.94;6254887;23;20008;-86
2021/08/06 11:44:21;;;;;;;2.40;1.38;;;22.70;99.90;;;24.08;64.21;99305.38;6254339;23;20108;-91
2021/08/06 11:46:51;;;;;;;3.88;1.60;;;22.60;99.90;;;23.82;64.92;99305.00;6254499;23;20038;-90
2021/08/06 11:49:19;;;;;;;2.65;1.23;;;22.50;99.90;;;23.75;66.82;99308.19;6255911;23;20072;-91
2021/08/06 11:51:54;;;;;;;3.17;1.85;;;22.20;99.90;;;22.82;67.66;99298.63;6257130;23;20008;-90
2021/08/06 11:54:26;;;;;;;4.03;1.50;;;21.80;99.90;;;22.77;67.42;99311.44;6258654;22;20008;-88
2021/08/06 11:57:00;;;;;;;2.55;1.30;;;21.50;99.90;;;22.76;68.16;99304.19;6259178;23;20012;-88
2021/08/06 11:59:27;;;;;;;4.45;1.75;;;21.30;99.90;;;22.45;69.63;99309.94;6256076;23;20011;-89
2021/08/06 12:02:20;;;;;;;2.08;1.30;;;21.10;99.90;;;21.54;72.66;99322.97;6254245;23;20004;-87
2021/08/06 12:04:46;;;;;;;2.70;1.75;;;20.70;99.90;;;21.59;75.33;99332.94;6254855;23;20004;-88
2021/08/06 12:07:12;;;;;;;2.60;1.20;;;20.40;99.90;;;20.96;75.49;99343.34;6267234;23;20027;-87
2021/08/06 12:09:44;;;;;;;1.77;1.15;;;20.00;99.90;;;20.08;81.60;99339.88;6263615;23;20024;-87
2021/08/06 12:12:12;;;;;;;2.40;1.08;;;19.30;99.90;;;20.00;82.89;99337.25;6250425;22;20023;-88
2021/08/06 12:14:37;;;;;;;4.55;1.50;;;18.90;99.90;;;19.99;83.49;99335.69;6249762;23;20004;-89
2021/08/06 12:17:03;;;;;;;3.97;1.38;;;18.70;99.90;;;20.13;85.02;99334.41;6248920;23;20049;-88
2021/08/06 12:19:29;;;;;;;3.95;1.48;;;18.70;99.90;;;20.25;86.23;99327.97;6248322;23;20004;-90
2021/08/06 12:21:55;;;;;;;5.43;1.40;;;18.80;99.90;;;20.43;85.89;99328.19;6249780;23;20004;-90
2021/08/06 12:24:22;;;;;;;3.65;1.33;;;19.00;99.90;;;20.98;85.13;99328.69;6250373;23;20004;-88
2021/08/06 12:26:59;;;;;;;3.78;1.80;;;19.40;99.90;;;21.89;84.74;99320.81;6248590;23;20012;-89
2021/08/06 12:29:36;;;;;;;4.60;1.52;;;20.20;99.90;;;22.29;79.59;99313.06;6277691;22;20349;-89
2021/08/06 12:32:11;;;;;;;1.55;1.42;;;20.70;99.90;;;22.29;78.54;99324.44;6278600;22;20042;-87
2021/08/06 12:34:51;;;;;;;3.33;1.55;;;20.80;99.90;;;21.95;78.09;99328.28;6279743;22;20067;-88
2021/08/06 12:37:32;;;;;;;2.47;1.20;;;20.70;99.90;;;22.05;78.49;99326.25;6280160;22;20507;-91
2021/08/06 12:39:59;;;;;;;3.40;1.52;;;20.70;99.90;;;22.02;78.35;99321.50;6285290;22;20430;-88
2021/08/06 12:42:35;;;;;;;2.63;1.08;;;20.70;99.90;;;22.29;77.20;99312.25;6285195;22;20019;-91
2021/08/06 12:45:11;;;;;;;3.38;1.45;;;21.00;99.90;;;23.22;75.45;99307.78;6285235;22;20008;-88
2021/08/06 12:47:55;;;;;;;5.15;1.65;;;21.60;99.90;;;23.22;75.48;99307.78;6284050;22;20007;-89
2021/08/06 12:50:22;;;;;;;3.17;1.50;;;21.80;99.90;;;23.68;73.88;99302.03;6283629;22;20062;-86
2021/08/06 12:53:12;;;;;;;3.75;1.40;;;22.20;99.90;;;24.67;71.35;99304.41;6282751;22;20077;-89
2021/08/06 12:55:42;;;;;;;3.08;1.60;;;22.80;99.90;;;24.85;66.49;99302.72;6281776;22;20079;-88
2021/08/06 12:58:11;;;;;;;2.75;1.27;;;23.20;99.90;;;25.28;69.36;99293.44;6281916;22;20007;-86
2021/08/06 13:01:00;;;;;;;3.10;1.45;;;23.50;99.90;;;25.31;66.90;99292.44;6280107;22;20665;-89
2021/08/06 13:03:28;;;;;;;2.40;1.10;;;23.80;99.90;;;25.65;62.47;99303.22;6281051;22;20003;-88
2021/08/06 13:06:01;;;;;;;4.95;1.75;;;24.20;99.90;;;25.17;61.57;99296.09;6280980;22;20341;-88
2021/08/06 13:08:30;;;;;;;4.38;1.58;;;24.20;99.90;;;25.32;61.46;99298.97;6279097;22;20421;-88
2021/08/06 13:11:02;;;;;;;3.15;1.52;;;23.80;99.90;;;24.48;64.58;99305.78;6277916;22;20042;-88
2021/08/06 13:13:38;;;;;;;2.13;1.23;;;23.40;99.90;;;23.77;66.30;99299.94;6280281;22;20156;-88
2021/08/06 13:16:10;;;;;;;3.10;1.20;;;23.00;99.90;;;24.22;64.96;99293.25;6280022;22;20011;-89
2021/08/06 13:18:48;;;;;;;2.35;1.23;;;23.20;99.90;;;25.05;60.91;99282.84;6282683;22;20030;-89
2021/08/06 13:21:20;;;;;;;1.30;1.02;;;23.60;99.90;;;25.75;60.65;99295.34;6282339;22;20000;-86
2021/08/06 13:23:47;;;;;;;3.90;1.13;;;24.00;99.90;;;24.84;58.80;99296.22;6281398;22;20008;-88
2021/08/06 13:26:13;;;;;;;2.70;0.98;;;23.70;99.90;;;24.30;62.11;99303.06;6288140;22;20082;-87
2021/08/06 13:28:39;;;;;;;3.53;1.00;;;23.30;99.90;;;23.77;61.76;99287.72;6285644;22;20341;-89
2021/08/06 13:31:06;;;;;;;4.20;1.27;;;22.90;99.90;;;23.70;61.58;99294.56;6283057;22;20004;-87
2021/08/06 13:33:34;;;;;;;5.50;1.30;;;22.70;99.90;;;23.55;63.68;99294.47;6293018;22;20004;-86
2021/08/06 13:36:00;;;;;;;2.78;0.85;;;22.50;99.90;;;23.61;62.85;99303.94;6284779;22;20008;-90
2021/08/06 13:38:27;;;;;;;1.95;1.08;;;22.30;99.90;;;24.02;63.80;99308.06;6307029;22;20273;-90
2021/08/06 13:40:53;;;;;;;2.20;1.17;;;22.60;99.90;;;24.58;62.12;99304.47;6282226;22;20007;-91
2021/08/06 13:43:20;;;;;;;1.38;0.93;;;22.90;99.90;;;24.03;60.77;99303.94;6281442;22;20015;-89
2021/08/06 13:45:47;;;;;;;2.92;1.38;;;22.70;99.90;;;23.85;63.30;99304.03;6286599;22;20003;-88
2021/08/06 13:48:14;;;;;;;2.53;0.90;;;22.60;99.90;;;24.10;64.73;99305.66;6284474;22;20014;-88
2021/08/06 13:50:42;;;;;;;1.98;1.10;;;22.90;99.90;;;24.38;61.93;99309.19;6284111;22;20008;-91
2021/08/06 13:53:08;;;;;;;2.15;1.25;;;23.00;99.90;;;23.61;63.74;99300.28;6282569;22;20294;-89
2021/08/06 13:55:34;;;;;;;3.20;1.30;;;22.70;99.90;;;24.15;62.58;99313.59;6284743;22;20044;-92
2021/08/06 13:58:00;;;;;;;3.25;1.23;;;23.00;99.90;;;24.45;60.24;99312.47;6284363;22;20003;-90
2021/08/06 14:00:30;;;;;;;4.22;1.60;;;23.10;99.90;;;24.03;61.18;99314.56;6291845;22;20003;-90
2021/08/06 14:02:56;;;;;;;2.95;1.50;;;22.90;99.90;;;24.24;61.06;99318.47;6305731;22;20014;-89
2021/08/06 14:05:22;;;;;;;3.20;1.10;;;23.10;99.90;;;24.61;57.22;99314.91;6281915;22;20008;-86
2021/08/06 14:07:49;;;;;;;6.20;1.50;;;23.30;99.90;;;24.09;57.53;99315.47;6280923;22;20006;-90
2021/08/06 14:10:16;;;;;;;2.42;1.35;;;23.10;99.90;;;24.49;58.03;99318.00;6280584;22;20000;-87
2021/08/06 14:12:42;;;;;;;1.30;1.05;;;23.30;99.90;;;25.21;54.62;99310.97;6280790;22;20030;-85
2021/08/06 14:15:18;;;;;;;2.78;1.20;;;23.70;99.90;;;24.90;54.91;99327.72;6283508;22;20422;-87
2021/08/06 14:17:48;;;;;;;2.85;1.10;;;23.70;99.90;;;24.60;56.84;99323.94;6283037;22;20008;-90
2021/08/06 14:20:16;;;;;;;4.35;1.40;;;23.50;99.90;;;24.47;54.76;99331.94;6284516;22;20004;-89
2021/08/06 14:22:42;;;;;;;3.55;1.42;;;23.50;99.90;;;25.03;55.54;99329.06;6284975;22;20086;-87
2021/08/06 14:25:09;;;;;;;2.47;1.58;;;23.60;99.90;;;25.13;55.65;99315.50;6301062;22;20000;-88
2021/08/06 14:27:35;;;;;;;1.75;1.10;;;23.70;99.90;;;25.39;53.69;99322.22;6318576;22;20014;-89
2021/08/06 14:30:05;;;;;;;1.85;1.25;;;23.80;99.90;;;25.77;53.51;99320.59;6286575;22;19995;-88
2021/08/06 14:32:42;;;;;;;2.13;1.25;;;24.10;99.90;;;25.71;54.60;99323.34;6282136;22;20142;-88
2021/08/06 14:35:09;;;;;;;3.33;1.20;;;24.20;99.90;;;25.99;53.93;99320.97;6281934;22;20087;-87
2021/08/06 14:37:36;;;;;;;2.97;1.20;;;24.40;99.90;;;25.71;52.93;99319.72;6279734;22;20084;-85
2021/08/06 14:40:03;;;;;;;2.33;1.10;;;24.50;99.90;;;25.24;53.66;99332.06;6281417;22;20004;-87
2021/08/06 14:42:31;;;;;;;1.50;1.10;;;24.10;99.90;;;24.39;56.51;99328.69;6281474;22;20452;-87
2021/08/06 14:44:57;;;;;;;3.50;1.40;;;23.60;99.90;;;24.44;57.47;99325.16;6281289;22;20008;-86
2021/08/06 14:47:23;;;;;;;1.20;1.10;;;23.50;99.90;;;24.61;56.82;99320.63;6280461;22;20007;-85
2021/08/06 14:49:49;;;;;;;2.78;1.40;;;23.50;99.90;;;25.03;55.73;99331.91;6279907;22;20007;-87
2021/08/06 14:52:16;;;;;;;3.22;1.10;;;23.60;99.90;;;24.71;56.66;99331.97;6279612;22;20447;-88
2021/08/06 14:54:43;;;;;;;2.33;1.33;;;23.30;99.90;;;23.92;57.89;99322.84;6280247;22;20314;-88
2021/08/06 14:57:10;;;;;;;3.30;1.10;;;23.00;99.90;;;23.85;56.92;99323.19;6281211;22;20110;-88
2021/08/06 14:59:35;;;;;;;3.33;1.27;;;22.90;99.90;;;23.67;57.22;99320.38;6279181;22;20004;-88
2021/08/06 15:02:03;;;;;;;3.28;1.60;;;22.60;99.90;;;23.37;58.30;99331.53;6279524;22;20038;-87
2021/08/06 15:04:29;;;;;;;2.30;1.33;;;22.40;99.90;;;23.46;59.09;99337.22;6279840;22;20384;-87
2021/08/06 15:06:55;;;;;;;2.67;1.25;;;22.30;99.90;;;23.75;58.80;99330.19;6281712;22;20454;-87